sensor_id;sensor_type;location;lat;lon;timestamp;pressure;altitude;pressure_sealevel;temperature;humidity
48089;BME280;33867;50.314;7.802;2022-07-05T00:01:59;100784.97;;;15.63;63.45
48089;BME280;33867;50.314;7.802;2022-07-05T00:05:18;100788.81;;;15.52;63.30
48089;BME280;33867;50.314;7.802;2022-07-05T00:08:38;100798.13;;;15.49;62.91
48089;BME280;33867;50.314;7.802;2022-07-05T00:11:57;100795.69;;;15.38;63.90
48089;BME280;33867;50.314;7.802;2022-07-05T00:15:16;100799.03;;;15.24;64.11
48089;BME280;33867;50.314;7.802;2022-07-05T00:18:36;100790.50;;;15.11;64.57
48089;BME280;33867;50.314;7.802;2022-07-05T00:21:55;100796.91;;;15.02;64.75
48089;BME280;33867;50.314;7.802;2022-07-05T00:25:14;100797.03;;;14.92;65.48
48089;BME280;33867;50.314;7.802;2022-07-05T00:28:34;100797.50;;;14.87;66.32
48089;BME280;33867;50.314;7.802;2022-07-05T00:31:53;100795.97;;;14.85;65.99
48089;BME280;33867;50.314;7.802;2022-07-05T00:35:12;100799.63;;;14.76;65.99
48089;BME280;33867;50.314;7.802;2022-07-05T00:38:31;100800.28;;;14.70;66.84
48089;BME280;33867;50.314;7.802;2022-07-05T00:41:51;100792.25;;;14.60;66.52
48089;BME280;33867;50.314;7.802;2022-07-05T00:45:10;100798.84;;;14.57;66.86
48089;BME280;33867;50.314;7.802;2022-07-05T00:48:30;100797.28;;;14.55;66.99
48089;BME280;33867;50.314;7.802;2022-07-05T00:51:49;100805.53;;;14.45;67.14
48089;BME280;33867;50.314;7.802;2022-07-05T00:55:08;100803.25;;;14.41;67.17
48089;BME280;33867;50.314;7.802;2022-07-05T00:58:28;100813.56;;;14.37;67.05
48089;BME280;33867;50.314;7.802;2022-07-05T01:01:47;100796.06;;;14.31;67.79
48089;BME280;33867;50.314;7.802;2022-07-05T01:05:06;100794.69;;;14.27;67.54
48089;BME280;33867;50.314;7.802;2022-07-05T01:08:25;100807.53;;;14.25;67.65
48089;BME280;33867;50.314;7.802;2022-07-05T01:11:46;100802.44;;;14.22;68.98
48089;BME280;33867;50.314;7.802;2022-07-05T01:15:06;100801.34;;;14.15;67.97
48089;BME280;33867;50.314;7.802;2022-07-05T01:18:26;100814.03;;;14.15;68.01
48089;BME280;33867;50.314;7.802;2022-07-05T01:21:47;100812.34;;;13.96;68.59
48089;BME280;33867;50.314;7.802;2022-07-05T01:25:07;100799.81;;;13.95;68.05
48089;BME280;33867;50.314;7.802;2022-07-05T01:28:26;100818.59;;;13.96;69.03
48089;BME280;33867;50.314;7.802;2022-07-05T01:31:46;100807.88;;;13.87;68.35
48089;BME280;33867;50.314;7.802;2022-07-05T01:35:07;100814.97;;;13.88;69.51
48089;BME280;33867;50.314;7.802;2022-07-05T01:38:27;100808.72;;;13.87;68.32
48089;BME280;33867;50.314;7.802;2022-07-05T01:41:48;100808.09;;;13.75;68.92
48089;BME280;33867;50.314;7.802;2022-07-05T01:45:07;100812.56;;;13.67;69.35
48089;BME280;33867;50.314;7.802;2022-07-05T01:48:28;100807.41;;;13.73;68.56
48089;BME280;33867;50.314;7.802;2022-07-05T01:51:50;100813.88;;;13.81;68.72
48089;BME280;33867;50.314;7.802;2022-07-05T01:55:10;100812.09;;;13.71;69.13
48089;BME280;33867;50.314;7.802;2022-07-05T01:58:30;100806.59;;;13.81;68.86
48089;BME280;33867;50.314;7.802;2022-07-05T02:01:50;100802.09;;;13.72;69.20
48089;BME280;33867;50.314;7.802;2022-07-05T02:05:09;100816.25;;;13.66;69.71
48089;BME280;33867;50.314;7.802;2022-07-05T02:08:30;100817.00;;;13.58;69.99
48089;BME280;33867;50.314;7.802;2022-07-05T02:11:49;100814.78;;;13.54;70.23
48089;BME280;33867;50.314;7.802;2022-07-05T02:15:08;100813.13;;;13.43;70.67
48089;BME280;33867;50.314;7.802;2022-07-05T02:18:28;100819.66;;;13.50;70.58
48089;BME280;33867;50.314;7.802;2022-07-05T02:21:48;100816.22;;;13.48;70.28
48089;BME280;33867;50.314;7.802;2022-07-05T02:25:10;100821.53;;;13.40;70.74
48089;BME280;33867;50.314;7.802;2022-07-05T02:28:30;100825.81;;;13.42;70.57
48089;BME280;33867;50.314;7.802;2022-07-05T02:31:50;100826.25;;;13.38;70.32
48089;BME280;33867;50.314;7.802;2022-07-05T02:35:11;100820.44;;;13.33;70.38
48089;BME280;33867;50.314;7.802;2022-07-05T02:38:30;100822.19;;;13.24;70.84
48089;BME280;33867;50.314;7.802;2022-07-05T02:41:50;100828.16;;;13.18;70.82
48089;BME280;33867;50.314;7.802;2022-07-05T02:45:10;100834.56;;;13.27;70.44
48089;BME280;33867;50.314;7.802;2022-07-05T02:48:30;100827.88;;;13.11;70.80
48089;BME280;33867;50.314;7.802;2022-07-05T02:51:50;100829.03;;;13.19;70.30
48089;BME280;33867;50.314;7.802;2022-07-05T02:55:09;100821.94;;;13.08;70.51
48089;BME280;33867;50.314;7.802;2022-07-05T02:58:29;100829.19;;;13.07;70.59
48089;BME280;33867;50.314;7.802;2022-07-05T03:01:49;100833.25;;;12.94;71.34
48089;BME280;33867;50.314;7.802;2022-07-05T03:05:10;100837.19;;;12.99;70.81
48089;BME280;33867;50.314;7.802;2022-07-05T03:08:31;100834.34;;;13.01;70.21
48089;BME280;33867;50.314;7.802;2022-07-05T03:11:50;100842.16;;;13.04;70.40
48089;BME280;33867;50.314;7.802;2022-07-05T03:15:10;100852.13;;;13.03;70.12
48089;BME280;33867;50.314;7.802;2022-07-05T03:18:29;100841.19;;;12.95;70.35
48089;BME280;33867;50.314;7.802;2022-07-05T03:21:49;100838.78;;;12.92;70.14
48089;BME280;33867;50.314;7.802;2022-07-05T03:25:08;100843.63;;;12.88;70.29
48089;BME280;33867;50.314;7.802;2022-07-05T03:28:28;100847.22;;;12.79;70.62
48089;BME280;33867;50.314;7.802;2022-07-05T03:31:50;100848.50;;;12.75;71.00
48089;BME280;33867;50.314;7.802;2022-07-05T03:35:10;100844.22;;;12.73;70.99
48089;BME280;33867;50.314;7.802;2022-07-05T03:38:30;100845.63;;;12.77;71.17
48089;BME280;33867;50.314;7.802;2022-07-05T03:41:49;100842.69;;;12.61;71.32
48089;BME280;33867;50.314;7.802;2022-07-05T03:45:13;100842.25;;;12.65;70.86
48089;BME280;33867;50.314;7.802;2022-07-05T03:48:33;100841.44;;;12.55;71.37
48089;BME280;33867;50.314;7.802;2022-07-05T03:51:52;100848.66;;;12.64;71.53
48089;BME280;33867;50.314;7.802;2022-07-05T03:55:11;100842.28;;;12.55;71.72
48089;BME280;33867;50.314;7.802;2022-07-05T03:58:31;100848.97;;;12.51;72.15
48089;BME280;33867;50.314;7.802;2022-07-05T04:01:52;100840.72;;;12.53;71.87
48089;BME280;33867;50.314;7.802;2022-07-05T04:05:12;100846.97;;;12.53;72.43
48089;BME280;33867;50.314;7.802;2022-07-05T04:08:33;100858.22;;;12.49;72.02
48089;BME280;33867;50.314;7.802;2022-07-05T04:11:52;100855.34;;;12.50;72.40
48089;BME280;33867;50.314;7.802;2022-07-05T04:15:12;100855.34;;;12.50;72.82
48089;BME280;33867;50.314;7.802;2022-07-05T04:18:32;100855.50;;;12.58;72.20
48089;BME280;33867;50.314;7.802;2022-07-05T04:21:52;100860.84;;;12.78;72.01
48089;BME280;33867;50.314;7.802;2022-07-05T04:25:12;100863.72;;;12.67;72.34
48089;BME280;33867;50.314;7.802;2022-07-05T04:28:39;100874.56;;;12.57;72.45
48089;BME280;33867;50.314;7.802;2022-07-05T04:32:01;100875.56;;;12.56;72.62
48089;BME280;33867;50.314;7.802;2022-07-05T04:35:21;100879.97;;;12.57;73.20
48089;BME280;33867;50.314;7.802;2022-07-05T04:38:43;100886.47;;;12.64;72.81
48089;BME280;33867;50.314;7.802;2022-07-05T04:42:02;100883.78;;;12.64;72.89
48089;BME280;33867;50.314;7.802;2022-07-05T04:45:21;100888.03;;;12.67;73.03
48089;BME280;33867;50.314;7.802;2022-07-05T04:48:42;100883.75;;;12.83;72.63
48089;BME280;33867;50.314;7.802;2022-07-05T04:52:03;100884.91;;;12.81;72.40
48089;BME280;33867;50.314;7.802;2022-07-05T04:55:24;100871.66;;;12.87;72.20
48089;BME280;33867;50.314;7.802;2022-07-05T04:58:43;100880.03;;;12.94;72.26
48089;BME280;33867;50.314;7.802;2022-07-05T05:02:03;100885.13;;;12.97;71.51
48089;BME280;33867;50.314;7.802;2022-07-05T05:05:22;100888.84;;;12.96;71.80
48089;BME280;33867;50.314;7.802;2022-07-05T05:08:41;100891.00;;;12.93;71.98
48089;BME280;33867;50.314;7.802;2022-07-05T05:12:00;100888.56;;;12.89;72.12
48089;BME280;33867;50.314;7.802;2022-07-05T05:15:20;100890.53;;;12.97;72.41
48089;BME280;33867;50.314;7.802;2022-07-05T05:18:40;100886.72;;;12.90;72.72
48089;BME280;33867;50.314;7.802;2022-07-05T05:21:59;100886.44;;;12.93;72.89
48089;BME280;33867;50.314;7.802;2022-07-05T05:25:18;100890.69;;;13.05;72.68
48089;BME280;33867;50.314;7.802;2022-07-05T05:28:37;100890.78;;;13.13;72.79
48089;BME280;33867;50.314;7.802;2022-07-05T05:31:58;100896.78;;;13.07;74.35
48089;BME280;33867;50.314;7.802;2022-07-05T05:35:18;100893.69;;;13.02;75.22
48089;BME280;33867;50.314;7.802;2022-07-05T05:38:39;100899.34;;;12.99;76.10
48089;BME280;33867;50.314;7.802;2022-07-05T05:41:58;100901.91;;;13.01;76.30
48089;BME280;33867;50.314;7.802;2022-07-05T05:45:18;100902.75;;;13.01;74.56
48089;BME280;33867;50.314;7.802;2022-07-05T05:48:37;100904.63;;;13.01;76.48
48089;BME280;33867;50.314;7.802;2022-07-05T05:51:57;100886.69;;;14.01;72.92
48089;BME280;33867;50.314;7.802;2022-07-05T05:55:16;100852.66;;;16.96;62.79
48089;BME280;33867;50.314;7.802;2022-07-05T05:58:36;100852.19;;;18.33;57.57
48089;BME280;33867;50.314;7.802;2022-07-05T06:01:55;100904.75;;;19.25;56.71
48089;BME280;33867;50.314;7.802;2022-07-05T06:05:15;100896.88;;;20.25;54.47
48089;BME280;33867;50.314;7.802;2022-07-05T06:08:35;100905.72;;;21.41;49.31
48089;BME280;33867;50.314;7.802;2022-07-05T06:11:54;100900.78;;;23.06;45.69
48089;BME280;33867;50.314;7.802;2022-07-05T06:15:14;100901.19;;;24.01;42.65
48089;BME280;33867;50.314;7.802;2022-07-05T06:18:33;100909.22;;;25.35;40.86
48089;BME280;33867;50.314;7.802;2022-07-05T06:21:53;100904.06;;;25.57;40.31
48089;BME280;33867;50.314;7.802;2022-07-05T06:25:12;100903.19;;;26.00;38.17
48089;BME280;33867;50.314;7.802;2022-07-05T06:28:31;100896.13;;;26.64;38.36
48089;BME280;33867;50.314;7.802;2022-07-05T06:31:52;100889.16;;;27.61;36.61
48089;BME280;33867;50.314;7.802;2022-07-05T06:35:12;100893.66;;;27.91;36.37
48089;BME280;33867;50.314;7.802;2022-07-05T06:38:32;100889.19;;;28.42;34.23
48089;BME280;33867;50.314;7.802;2022-07-05T06:41:51;100892.41;;;28.67;34.28
48089;BME280;33867;50.314;7.802;2022-07-05T06:45:11;100894.19;;;30.50;33.21
48089;BME280;33867;50.314;7.802;2022-07-05T06:48:30;100884.44;;;28.14;34.47
48089;BME280;33867;50.314;7.802;2022-07-05T06:51:50;100896.16;;;30.54;33.10
48089;BME280;33867;50.314;7.802;2022-07-05T06:55:09;100885.22;;;30.43;32.72
48089;BME280;33867;50.314;7.802;2022-07-05T06:58:29;100882.88;;;30.56;32.48
48089;BME280;33867;50.314;7.802;2022-07-05T07:01:50;100887.16;;;30.42;33.66
48089;BME280;33867;50.314;7.802;2022-07-05T07:05:09;100877.94;;;30.91;33.37
48089;BME280;33867;50.314;7.802;2022-07-05T07:08:29;100876.09;;;31.06;32.43
48089;BME280;33867;50.314;7.802;2022-07-05T07:12:07;100870.47;;;31.01;32.53
48089;BME280;33867;50.314;7.802;2022-07-05T07:15:27;100882.03;;;30.56;33.42
48089;BME280;33867;50.314;7.802;2022-07-05T07:18:47;100876.94;;;30.21;34.02
48089;BME280;33867;50.314;7.802;2022-07-05T07:22:06;100880.91;;;30.30;33.95
48089;BME280;33867;50.314;7.802;2022-07-05T07:25:25;100887.16;;;30.15;34.04
48089;BME280;33867;50.314;7.802;2022-07-05T07:28:45;100883.53;;;30.15;33.84
48089;BME280;33867;50.314;7.802;2022-07-05T07:32:06;100884.59;;;30.36;34.28
48089;BME280;33867;50.314;7.802;2022-07-05T07:35:26;100883.97;;;30.28;33.94
48089;BME280;33867;50.314;7.802;2022-07-05T07:38:45;100888.19;;;30.31;34.00
48089;BME280;33867;50.314;7.802;2022-07-05T07:42:05;100880.56;;;30.48;34.46
48089;BME280;33867;50.314;7.802;2022-07-05T07:45:24;100887.25;;;30.52;33.70
48089;BME280;33867;50.314;7.802;2022-07-05T07:48:45;100884.34;;;30.64;33.18
48089;BME280;33867;50.314;7.802;2022-07-05T07:52:05;100880.19;;;30.99;33.66
48089;BME280;33867;50.314;7.802;2022-07-05T07:55:25;100887.56;;;31.15;33.60
48089;BME280;33867;50.314;7.802;2022-07-05T07:58:47;100891.72;;;31.50;33.53
48089;BME280;33867;50.314;7.802;2022-07-05T08:02:08;100889.25;;;31.58;32.83
48089;BME280;33867;50.314;7.802;2022-07-05T08:05:28;100891.38;;;31.41;31.60
48089;BME280;33867;50.314;7.802;2022-07-05T08:08:47;100888.06;;;31.49;31.68
48089;BME280;33867;50.314;7.802;2022-07-05T08:12:07;100886.38;;;31.95;32.37
48089;BME280;33867;50.314;7.802;2022-07-05T08:15:26;100878.41;;;32.24;32.09
48089;BME280;33867;50.314;7.802;2022-07-05T08:18:45;100877.66;;;32.60;30.67
48089;BME280;33867;50.314;7.802;2022-07-05T08:22:24;100879.56;;;32.39;31.01
48089;BME280;33867;50.314;7.802;2022-07-05T08:25:45;100879.63;;;32.59;31.21
48089;BME280;33867;50.314;7.802;2022-07-05T08:29:09;100876.25;;;32.77;30.78
48089;BME280;33867;50.314;7.802;2022-07-05T08:32:30;100863.44;;;32.61;30.76
48089;BME280;33867;50.314;7.802;2022-07-05T08:35:51;100872.41;;;32.83;29.75
48089;BME280;33867;50.314;7.802;2022-07-05T08:39:11;100867.94;;;32.98;29.95
48089;BME280;33867;50.314;7.802;2022-07-05T08:42:32;100861.50;;;33.12;29.45
48089;BME280;33867;50.314;7.802;2022-07-05T08:45:56;100869.88;;;33.07;29.26
48089;BME280;33867;50.314;7.802;2022-07-05T08:49:16;100860.91;;;33.31;28.03
48089;BME280;33867;50.314;7.802;2022-07-05T08:52:39;100861.44;;;33.48;28.67
48089;BME280;33867;50.314;7.802;2022-07-05T08:55:59;100870.03;;;33.62;28.50
48089;BME280;33867;50.314;7.802;2022-07-05T08:59:18;100854.34;;;33.81;28.38
48089;BME280;33867;50.314;7.802;2022-07-05T09:02:38;100863.84;;;33.80;28.29
48089;BME280;33867;50.314;7.802;2022-07-05T09:05:58;100858.19;;;33.95;27.93
48089;BME280;33867;50.314;7.802;2022-07-05T09:09:20;100859.91;;;33.91;27.99
48089;BME280;33867;50.314;7.802;2022-07-05T09:12:40;100860.19;;;33.90;27.90
48089;BME280;33867;50.314;7.802;2022-07-05T09:16:00;100863.59;;;33.77;28.42
48089;BME280;33867;50.314;7.802;2022-07-05T09:19:21;100858.97;;;34.11;27.24
48089;BME280;33867;50.314;7.802;2022-07-05T09:22:45;100858.03;;;33.66;27.01
48089;BME280;33867;50.314;7.802;2022-07-05T09:26:05;100859.09;;;33.81;26.94
48089;BME280;33867;50.314;7.802;2022-07-05T09:29:24;100860.13;;;32.95;25.80
48089;BME280;33867;50.314;7.802;2022-07-05T09:32:43;100864.78;;;33.50;27.08
48089;BME280;33867;50.314;7.802;2022-07-05T09:36:05;100856.97;;;34.17;26.78
48089;BME280;33867;50.314;7.802;2022-07-05T09:39:36;100857.00;;;34.95;26.01
48089;BME280;33867;50.314;7.802;2022-07-05T09:43:19;100851.44;;;35.48;25.41
48089;BME280;33867;50.314;7.802;2022-07-05T09:46:42;100855.66;;;35.69;25.44
48089;BME280;33867;50.314;7.802;2022-07-05T09:50:01;100858.00;;;35.33;24.35
48089;BME280;33867;50.314;7.802;2022-07-05T09:53:44;100851.25;;;34.76;23.15
48089;BME280;33867;50.314;7.802;2022-07-05T09:57:04;100842.69;;;34.63;25.36
48089;BME280;33867;50.314;7.802;2022-07-05T10:00:26;100853.97;;;35.15;25.56
48089;BME280;33867;50.314;7.802;2022-07-05T10:03:58;100854.16;;;35.00;25.49
48089;BME280;33867;50.314;7.802;2022-07-05T10:07:41;100850.19;;;34.72;24.96
48089;BME280;33867;50.314;7.802;2022-07-05T10:11:00;100849.97;;;34.64;24.81
48089;BME280;33867;50.314;7.802;2022-07-05T10:14:21;100850.56;;;34.55;25.99
48089;BME280;33867;50.314;7.802;2022-07-05T10:17:43;100848.53;;;34.66;24.91
48089;BME280;33867;50.314;7.802;2022-07-05T10:21:03;100856.59;;;34.73;24.92
48089;BME280;33867;50.314;7.802;2022-07-05T10:24:24;100854.41;;;34.70;25.48
48089;BME280;33867;50.314;7.802;2022-07-05T10:27:45;100845.44;;;34.68;24.45
48089;BME280;33867;50.314;7.802;2022-07-05T10:31:05;100842.53;;;34.83;25.57
48089;BME280;33867;50.314;7.802;2022-07-05T10:34:28;100856.38;;;34.69;26.11
48089;BME280;33867;50.314;7.802;2022-07-05T10:37:48;100846.19;;;34.44;25.14
48089;BME280;33867;50.314;7.802;2022-07-05T10:41:11;100843.56;;;30.70;25.71
48089;BME280;33867;50.314;7.802;2022-07-05T10:44:33;100844.88;;;30.08;29.97
48089;BME280;33867;50.314;7.802;2022-07-05T10:51:35;100836.88;;;33.45;27.17
48089;BME280;33867;50.314;7.802;2022-07-05T11:02:12;100835.53;;;34.51;25.47
48089;BME280;33867;50.314;7.802;2022-07-05T11:05:31;100830.03;;;34.36;25.59
48089;BME280;33867;50.314;7.802;2022-07-05T11:12:16;100828.34;;;34.35;25.23
48089;BME280;33867;50.314;7.802;2022-07-05T11:15:35;100822.00;;;34.19;26.82
48089;BME280;33867;50.314;7.802;2022-07-05T11:19:05;100819.28;;;34.53;26.45
48089;BME280;33867;50.314;7.802;2022-07-05T11:22:25;100815.75;;;33.93;27.32
48089;BME280;33867;50.314;7.802;2022-07-05T11:25:45;100813.75;;;33.29;27.49
48089;BME280;33867;50.314;7.802;2022-07-05T11:29:44;100814.38;;;33.91;26.88
48089;BME280;33867;50.314;7.802;2022-07-05T11:33:27;100800.88;;;34.81;25.21
48089;BME280;33867;50.314;7.802;2022-07-05T11:40:45;100799.84;;;35.25;25.07
48089;BME280;33867;50.314;7.802;2022-07-05T11:44:09;100807.34;;;33.98;23.20
48089;BME280;33867;50.314;7.802;2022-07-05T11:48:24;100797.00;;;32.07;27.46
48089;BME280;33867;50.314;7.802;2022-07-05T11:52:01;100794.28;;;32.48;28.26
48089;BME280;33867;50.314;7.802;2022-07-05T12:10:06;100782.88;;;34.58;24.77
48089;BME280;33867;50.314;7.802;2022-07-05T12:23:42;100760.09;;;34.41;25.98
48089;BME280;33867;50.314;7.802;2022-07-05T12:32:08;100769.84;;;34.05;25.95
48089;BME280;33867;50.314;7.802;2022-07-05T12:41:20;100769.19;;;30.92;28.60
48089;BME280;33867;50.314;7.802;2022-07-05T12:45:17;100762.66;;;31.19;28.02
48089;BME280;33867;50.314;7.802;2022-07-05T12:54:46;100763.53;;;33.19;28.96
48089;BME280;33867;50.314;7.802;2022-07-05T13:19:27;100762.66;;;33.98;25.79
48089;BME280;33867;50.314;7.802;2022-07-05T13:23:26;100754.91;;;33.10;27.00
48089;BME280;33867;50.314;7.802;2022-07-05T13:27:44;100761.34;;;33.01;26.92
48089;BME280;33867;50.314;7.802;2022-07-05T13:31:06;100758.00;;;32.17;28.71
48089;BME280;33867;50.314;7.802;2022-07-05T13:34:37;100762.81;;;30.97;27.03
48089;BME280;33867;50.314;7.802;2022-07-05T13:51:48;100759.47;;;31.47;26.99
48089;BME280;33867;50.314;7.802;2022-07-05T13:55:20;100760.06;;;31.54;27.72
48089;BME280;33867;50.314;7.802;2022-07-05T13:58:59;100766.47;;;31.50;29.29
48089;BME280;33867;50.314;7.802;2022-07-05T14:02:29;100767.97;;;31.83;29.01
48089;BME280;33867;50.314;7.802;2022-07-05T14:07:05;100754.41;;;32.22;28.78
48089;BME280;33867;50.314;7.802;2022-07-05T14:11:12;100753.00;;;32.24;27.08
48089;BME280;33867;50.314;7.802;2022-07-05T14:14:37;100756.72;;;31.52;28.16
48089;BME280;33867;50.314;7.802;2022-07-05T14:18:01;100752.88;;;30.32;30.03
48089;BME280;33867;50.314;7.802;2022-07-05T14:21:21;100753.06;;;29.71;27.79
48089;BME280;33867;50.314;7.802;2022-07-05T14:24:47;100752.94;;;30.74;29.90
48089;BME280;33867;50.314;7.802;2022-07-05T14:32:40;100760.50;;;29.92;27.39
48089;BME280;33867;50.314;7.802;2022-07-05T14:36:38;100758.00;;;30.50;29.93
48089;BME280;33867;50.314;7.802;2022-07-05T14:41:19;100753.03;;;30.52;29.46
48089;BME280;33867;50.314;7.802;2022-07-05T14:45:38;100757.00;;;29.75;29.99
48089;BME280;33867;50.314;7.802;2022-07-05T14:54:02;100744.44;;;27.73;30.28
48089;BME280;33867;50.314;7.802;2022-07-05T14:58:01;100748.53;;;28.82;30.20
48089;BME280;33867;50.314;7.802;2022-07-05T15:01:21;100747.19;;;28.85;29.76
48089;BME280;33867;50.314;7.802;2022-07-05T15:04:44;100747.59;;;29.32;30.58
48089;BME280;33867;50.314;7.802;2022-07-05T15:08:09;100751.97;;;28.22;29.58
48089;BME280;33867;50.314;7.802;2022-07-05T15:12:01;100750.50;;;27.46;30.07
48089;BME280;33867;50.314;7.802;2022-07-05T15:15:25;100743.59;;;27.72;30.27
48089;BME280;33867;50.314;7.802;2022-07-05T15:19:07;100746.91;;;26.17;31.35
48089;BME280;33867;50.314;7.802;2022-07-05T15:22:29;100745.16;;;27.28;32.13
48089;BME280;33867;50.314;7.802;2022-07-05T15:26:31;100744.06;;;27.57;30.88
48089;BME280;33867;50.314;7.802;2022-07-05T15:29:55;100733.00;;;28.14;31.04
48089;BME280;33867;50.314;7.802;2022-07-05T15:33:38;100741.00;;;27.42;30.96
48089;BME280;33867;50.314;7.802;2022-07-05T15:42:09;100741.81;;;28.11;30.37
48089;BME280;33867;50.314;7.802;2022-07-05T15:46:25;100750.81;;;27.61;30.95
48089;BME280;33867;50.314;7.802;2022-07-05T15:50:46;100734.94;;;27.17;31.33
48089;BME280;33867;50.314;7.802;2022-07-05T15:54:14;100742.06;;;27.64;30.23
48089;BME280;33867;50.314;7.802;2022-07-05T15:57:41;100746.38;;;27.89;30.83
48089;BME280;33867;50.314;7.802;2022-07-05T16:10:04;100749.72;;;27.74;30.48
48089;BME280;33867;50.314;7.802;2022-07-05T16:13:33;100751.53;;;27.57;31.00
48089;BME280;33867;50.314;7.802;2022-07-05T16:17:35;100741.59;;;27.44;31.47
48089;BME280;33867;50.314;7.802;2022-07-05T16:21:33;100759.16;;;27.50;31.44
48089;BME280;33867;50.314;7.802;2022-07-05T16:25:25;100745.53;;;27.60;31.84
48089;BME280;33867;50.314;7.802;2022-07-05T16:28:47;100747.31;;;27.26;32.02
48089;BME280;33867;50.314;7.802;2022-07-05T16:32:22;100749.28;;;27.14;31.88
48089;BME280;33867;50.314;7.802;2022-07-05T16:36:34;100752.13;;;27.19;31.71
48089;BME280;33867;50.314;7.802;2022-07-05T16:40:38;100751.06;;;27.08;31.89
48089;BME280;33867;50.314;7.802;2022-07-05T16:49:32;100744.19;;;26.87;32.70
48089;BME280;33867;50.314;7.802;2022-07-05T16:53:23;100741.81;;;26.79;32.51
48089;BME280;33867;50.314;7.802;2022-07-05T16:56:44;100743.75;;;26.67;32.37
48089;BME280;33867;50.314;7.802;2022-07-05T17:00:04;100743.38;;;26.75;32.61
48089;BME280;33867;50.314;7.802;2022-07-05T17:03:26;100747.22;;;26.50;33.29
48089;BME280;33867;50.314;7.802;2022-07-05T17:06:50;100744.25;;;26.10;33.75
48089;BME280;33867;50.314;7.802;2022-07-05T17:30:30;100770.31;;;24.93;35.40
48089;BME280;33867;50.314;7.802;2022-07-05T17:34:21;100771.69;;;24.59;35.96
48089;BME280;33867;50.314;7.802;2022-07-05T19:11:40;100845.19;;;21.70;44.97
48089;BME280;33867;50.314;7.802;2022-07-05T19:16:01;100846.50;;;21.12;44.78
48089;BME280;33867;50.314;7.802;2022-07-05T19:19:32;100849.25;;;21.12;44.98
48089;BME280;33867;50.314;7.802;2022-07-05T19:23:09;100849.13;;;20.70;45.46
48089;BME280;33867;50.314;7.802;2022-07-05T19:31:29;100862.50;;;20.59;45.76
48089;BME280;33867;50.314;7.802;2022-07-05T19:35:00;100873.88;;;20.20;46.36
48089;BME280;33867;50.314;7.802;2022-07-05T20:13:00;100926.13;;;20.10;48.12
48089;BME280;33867;50.314;7.802;2022-07-05T20:16:24;100938.88;;;20.03;49.03
48089;BME280;33867;50.314;7.802;2022-07-05T20:19:43;100933.41;;;20.03;49.08
48089;BME280;33867;50.314;7.802;2022-07-05T20:23:04;100936.34;;;20.01;49.17
48089;BME280;33867;50.314;7.802;2022-07-05T20:26:23;100948.03;;;19.95;49.47
48089;BME280;33867;50.314;7.802;2022-07-05T20:29:42;100946.22;;;19.88;49.35
48089;BME280;33867;50.314;7.802;2022-07-05T20:33:02;100955.00;;;19.83;49.60
48089;BME280;33867;50.314;7.802;2022-07-05T20:36:22;100960.56;;;19.75;50.13
48089;BME280;33867;50.314;7.802;2022-07-05T20:39:42;100956.53;;;19.71;50.00
48089;BME280;33867;50.314;7.802;2022-07-05T20:43:08;100959.63;;;19.68;50.24
48089;BME280;33867;50.314;7.802;2022-07-05T20:46:29;100961.41;;;19.61;50.86
48089;BME280;33867;50.314;7.802;2022-07-05T20:49:56;100967.63;;;19.54;50.84
48089;BME280;33867;50.314;7.802;2022-07-05T20:53:16;100968.53;;;19.47;51.43
48089;BME280;33867;50.314;7.802;2022-07-05T20:56:35;100971.16;;;19.40;51.59
48089;BME280;33867;50.314;7.802;2022-07-05T20:59:58;100981.31;;;19.32;52.91
48089;BME280;33867;50.314;7.802;2022-07-05T21:03:21;100974.72;;;19.26;52.08
48089;BME280;33867;50.314;7.802;2022-07-05T21:06:42;100976.00;;;19.15;52.23
48089;BME280;33867;50.314;7.802;2022-07-05T21:10:03;100980.53;;;19.08;52.54
48089;BME280;33867;50.314;7.802;2022-07-05T21:13:22;100981.44;;;19.01;53.38
48089;BME280;33867;50.314;7.802;2022-07-05T21:16:42;100994.09;;;18.93;53.58
48089;BME280;33867;50.314;7.802;2022-07-05T21:20:04;100997.19;;;18.90;53.19
48089;BME280;33867;50.314;7.802;2022-07-05T21:23:24;101003.72;;;18.81;53.49
48089;BME280;33867;50.314;7.802;2022-07-05T21:26:44;101000.06;;;18.74;54.38
48089;BME280;33867;50.314;7.802;2022-07-05T21:30:05;101012.53;;;18.68;54.31
48089;BME280;33867;50.314;7.802;2022-07-05T21:33:26;101015.81;;;18.64;54.34
48089;BME280;33867;50.314;7.802;2022-07-05T21:36:48;101024.50;;;18.59;54.91
48089;BME280;33867;50.314;7.802;2022-07-05T21:40:09;101031.69;;;18.52;54.58
48089;BME280;33867;50.314;7.802;2022-07-05T21:43:29;101037.50;;;18.49;54.60
48089;BME280;33867;50.314;7.802;2022-07-05T21:46:52;101040.13;;;18.34;55.50
48089;BME280;33867;50.314;7.802;2022-07-05T21:50:13;101050.16;;;18.34;55.14
48089;BME280;33867;50.314;7.802;2022-07-05T21:53:33;101050.75;;;18.21;55.13
48089;BME280;33867;50.314;7.802;2022-07-05T21:56:52;101051.44;;;18.23;56.14
48089;BME280;33867;50.314;7.802;2022-07-05T22:00:20;101054.16;;;18.23;55.38
48089;BME280;33867;50.314;7.802;2022-07-05T22:03:59;101052.97;;;18.26;55.17
48089;BME280;33867;50.314;7.802;2022-07-05T22:07:36;101067.09;;;18.21;55.56
48089;BME280;33867;50.314;7.802;2022-07-05T22:10:55;101065.09;;;18.15;55.53
48089;BME280;33867;50.314;7.802;2022-07-05T22:14:47;101062.03;;;18.10;55.77
48089;BME280;33867;50.314;7.802;2022-07-05T22:18:07;101076.66;;;18.09;55.91
48089;BME280;33867;50.314;7.802;2022-07-05T22:21:26;101081.81;;;18.12;55.67
48089;BME280;33867;50.314;7.802;2022-07-05T22:24:48;101084.84;;;18.09;56.16
48089;BME280;33867;50.314;7.802;2022-07-05T22:28:07;101081.44;;;18.07;55.83
48089;BME280;33867;50.314;7.802;2022-07-05T22:31:27;101092.34;;;18.07;55.86